メインページ
METAR-TAF:

METAR-TAF

空港 :

ムルタラ・モハンマド国際空港

ラゴス, ナイジェリア

緯度: 06-35N, 経度: 003-20E, 海抜: 40m

現時点の気象観測

当レポートは49分前の15:00(UTC)に作成
南/南西の風 7kt
気温 29°C
湿度 66%
気圧 1012 hPa
視程10km以上
高度1300ftの雲は散在している
高度2000ftの雲はほとんどない, 積乱雲.

METAR: DNMM 251500Z 21007KT 9999 SCT013 FEW020CB 29/22 Q1012 NOSIG

時間: 16:49 (15:49 UTC)

予報

当レポートは5時間59分前の09:50(UTC)に作成
予報は25日の 12時(UTC)から 26日の 18時(UTC)まで有効
南/南西の風 10kt
視程10km以上
高度1300ftの千切れ雲あり
高度2000ftの雲はほとんどない, 積乱雲.
25日の 18時(UTC)から 25日の 20時(UTC)まで徐々に
変向風 2kt
高度1000ftの雲はほとんどない
25日の 20時(UTC)から 26日の 01時(UTC)まで一時的に
高度1000ftの雲はほとんどない
高度2000ftの雲はほとんどない, 積乱雲.
激しい雷雨

TAF: DNMM 250950Z 2512/2618 20010KT 9999 BKN013 FEW020CB BECMG 2518/2520 VRB02KT FEW010 TEMPO 2520/2601 TS FEW010 FEW020CB

4,000以上の空港の気象観測と天気予報(METAR報とTAF報)

利用可能な観測所は地図上に黄色い丸と赤い丸で示す。

丸の上にカーソルを重ねると観測所名を参照できる。

次にクリックすると気象観測と天気予報を参照できる。

マップの切り替え:黒色「×」印の緑ボタンをクリックして拡大、「-」印の緑ボタンをクリックして縮小、緑色の三角印をクリックして隣りの地図に切り替え


METAR-TAF: